createdAt,value
2018-11-21T00:00:54.116Z,45.73
2018-11-21T00:03:23.633Z,49.33
2018-11-21T00:06:12.370Z,47.78
2018-11-21T00:09:00.858Z,49.75
2018-11-21T00:11:30.395Z,43.73
2018-11-21T00:13:59.904Z,45.65
2018-11-21T00:16:29.699Z,45.88
2018-11-21T00:19:00.759Z,43.90
2018-11-21T00:21:29.448Z,48.33
2018-11-21T00:24:18.361Z,47.23
2018-11-21T00:26:48.127Z,45.23
2018-11-21T00:29:17.978Z,46.65
2018-11-21T00:31:47.454Z,48.90
2018-11-21T00:34:16.980Z,48.80
2018-11-21T00:36:46.473Z,48.95
2018-11-21T00:39:16.553Z,48.02
2018-11-21T00:42:05.254Z,51.30
2018-11-21T00:44:34.736Z,47.78
2018-11-21T00:47:04.613Z,46.97
2018-11-21T00:49:53.157Z,51.40
2018-11-21T00:52:22.678Z,47.30
2018-11-21T00:55:11.157Z,50.85
2018-11-21T00:57:41.224Z,51.45
2018-11-21T01:00:12.430Z,50.10
2018-11-21T01:02:41.895Z,47.25
2018-11-21T01:05:10.974Z,49.03
2018-11-21T01:07:40.457Z,48.50
2018-11-21T01:10:09.952Z,49.70
2018-11-21T01:12:39.762Z,48.30
2018-11-21T01:15:09.707Z,48.63
2018-11-21T01:17:39.234Z,47.85
2018-11-21T01:20:09.552Z,49.03
2018-11-21T01:22:39.726Z,51.90
2018-11-21T01:25:28.283Z,47.55
2018-11-21T01:27:58.137Z,50.03
2018-11-21T01:30:27.928Z,52.33
2018-11-21T01:33:16.130Z,53.35
2018-11-21T01:39:30.163Z,52.33
2018-11-21T01:42:00.076Z,51.20
2018-11-21T01:47:25.604Z,49.25
2018-11-21T01:49:55.218Z,49.85
2018-11-21T01:52:24.752Z,51.33
2018-11-21T01:55:12.962Z,50.43
2018-11-21T01:57:42.755Z,49.98
2018-11-21T02:00:13.068Z,50.58
2018-11-21T02:02:42.595Z,52.40
2018-11-21T02:05:31.437Z,50.28
2018-11-21T02:08:01.223Z,50.95
2018-11-21T02:10:31.571Z,51.67
2018-11-21T02:13:01.407Z,48.55
2018-11-21T02:15:30.958Z,51.68
2018-11-21T02:20:55.292Z,51.23
2018-11-21T02:23:25.131Z,51.73
2018-11-21T02:25:54.642Z,52.48
2018-11-21T02:28:24.183Z,52.73
2018-11-21T02:30:54.072Z,48.50
2018-11-21T02:33:26.172Z,55.83
2018-11-21T02:38:50.830Z,50.83
2018-11-21T02:41:20.371Z,52.55
2018-11-21T02:43:49.864Z,52.38
2018-11-21T02:46:19.365Z,51.02
2018-11-21T02:49:07.837Z,46.83
2018-11-21T02:51:38.276Z,48.83
2018-11-21T02:54:08.148Z,49.33
2018-11-21T02:57:15.531Z,51.80
2018-11-21T02:59:45.385Z,52.98
2018-11-21T03:02:15.056Z,48.78
2018-11-21T03:04:44.623Z,49.65
2018-11-21T03:07:33.316Z,49.35
2018-11-21T03:10:02.857Z,50.25
2018-11-21T03:12:32.713Z,47.98
2018-11-21T03:15:02.265Z,50.35
2018-11-21T03:17:32.041Z,48.90
2018-11-21T03:20:01.825Z,50.12
2018-11-21T03:22:31.310Z,49.50
2018-11-21T03:25:00.847Z,50.95
2018-11-21T03:27:30.323Z,48.87
2018-11-21T03:29:59.834Z,50.38
2018-11-21T03:32:29.656Z,50.00
2018-11-21T03:34:59.169Z,47.95
2018-11-21T03:37:28.965Z,48.83
2018-11-21T03:39:58.492Z,46.13
2018-11-21T03:42:37.400Z,46.13
2018-11-21T03:45:25.903Z,50.67
2018-11-21T03:47:55.485Z,51.75
2018-11-21T03:50:25.069Z,51.83
2018-11-21T03:52:54.816Z,47.30
2018-11-21T03:55:24.634Z,50.60
2018-11-21T03:57:54.127Z,48.95
2018-11-21T04:00:23.984Z,45.95
2018-11-21T04:02:53.446Z,47.77
2018-11-21T04:05:41.306Z,48.17
2018-11-21T04:08:10.812Z,54.25
2018-11-21T04:10:40.692Z,44.98
2018-11-21T04:13:10.267Z,50.28
2018-11-21T04:15:39.773Z,44.88
2018-11-21T04:18:09.635Z,48.40
2018-11-21T04:20:39.378Z,44.77
2018-11-21T04:23:27.549Z,43.30
2018-11-21T04:25:57.059Z,50.30
2018-11-21T04:35:13.376Z,49.93
2018-11-21T04:37:43.463Z,50.78
2018-11-21T04:40:13.057Z,45.60
2018-11-21T04:42:42.634Z,49.25
2018-11-21T04:45:12.414Z,49.38
2018-11-21T04:47:42.162Z,50.38
2018-11-21T04:50:12.143Z,48.20
2018-11-21T04:52:41.633Z,47.83
2018-11-21T04:55:11.362Z,46.80
2018-11-21T04:57:40.956Z,46.75
2018-11-21T05:00:11.621Z,49.77
2018-11-21T05:02:41.104Z,44.83
2018-11-21T05:05:11.625Z,47.25
2018-11-21T05:07:41.435Z,49.03
2018-11-21T05:10:11.259Z,50.17
2018-11-21T05:15:20.054Z,53.75
2018-11-21T05:17:49.544Z,51.05
2018-11-21T05:20:19.018Z,51.28
2018-11-21T05:22:48.832Z,54.45
2018-11-21T05:25:18.312Z,47.85
2018-11-21T05:28:42.359Z,51.75
2018-11-21T05:31:12.207Z,52.65
2018-11-21T05:33:41.685Z,52.78
2018-11-21T05:39:43.670Z,52.00
2018-11-21T05:42:13.493Z,52.00
2018-11-21T05:44:43.288Z,51.23
2018-11-21T05:57:04.666Z,51.45
2018-11-21T05:59:34.437Z,50.10
2018-11-21T06:02:04.294Z,50.45
2018-11-21T06:04:33.795Z,45.28
2018-11-21T06:14:53.755Z,50.10
2018-11-21T06:17:23.276Z,51.55
2018-11-21T06:19:52.734Z,51.73
2018-11-21T06:22:22.690Z,51.23
2018-11-21T06:24:52.458Z,49.27
2018-11-21T06:27:22.692Z,49.20
2018-11-21T06:29:52.474Z,53.45
2018-11-21T06:32:22.165Z,50.88
2018-11-21T06:34:51.672Z,48.45
2018-11-21T06:37:21.969Z,50.88
2018-11-21T06:57:13.394Z,53.70
2018-11-21T06:59:41.645Z,53.15
2018-11-21T07:02:09.931Z,53.20
2018-11-21T07:05:16.046Z,48.95
2018-11-21T07:07:44.435Z,51.77
2018-11-21T07:13:22.321Z,54.18
2018-11-21T07:15:50.896Z,44.85
2018-11-21T07:19:06.737Z,52.25
2018-11-21T07:21:35.322Z,47.70
2018-11-21T07:24:03.638Z,52.25
2018-11-21T07:26:32.220Z,50.90
2018-11-21T07:29:19.900Z,48.87
2018-11-21T07:35:20.663Z,50.65
2018-11-21T07:37:48.939Z,48.10
2018-11-21T07:40:17.194Z,47.50
2018-11-21T07:48:54.864Z,46.88
2018-11-21T07:51:23.522Z,46.83
2018-11-21T07:53:52.009Z,50.25
2018-11-21T08:04:58.595Z,45.20
2018-11-21T08:07:31.974Z,49.15
2018-11-21T08:10:19.645Z,47.33
2018-11-21T08:13:16.806Z,45.05
2018-11-21T08:30:30.557Z,43.60
2018-11-21T08:32:58.897Z,47.10
2018-11-21T08:38:25.419Z,43.95
2018-11-21T08:40:54.158Z,44.70
2018-11-21T08:46:41.383Z,41.53
2018-11-21T08:49:38.883Z,44.87
2018-11-21T08:54:55.462Z,40.73
2018-11-21T08:57:23.729Z,43.70
2018-11-21T08:59:51.992Z,44.48
2018-11-21T09:02:20.305Z,44.42
2018-11-21T09:04:48.618Z,44.98
2018-11-21T09:07:20.057Z,42.00
2018-11-21T09:09:49.012Z,41.77
2018-11-21T09:18:05.740Z,41.92
2018-11-21T09:23:44.490Z,40.83
2018-11-21T09:28:51.511Z,39.73
2018-11-21T09:31:20.331Z,43.28
2018-11-21T09:33:48.737Z,39.08
2018-11-21T09:36:19.738Z,40.90
2018-11-21T09:45:51.259Z,40.27
2018-11-21T09:48:39.758Z,41.58
2018-11-21T09:51:27.378Z,40.28
2018-11-21T09:53:55.679Z,40.33
2018-11-21T09:59:33.407Z,37.90
2018-11-21T10:06:37.817Z,35.90
2018-11-21T10:09:19.977Z,36.20
2018-11-21T10:11:48.591Z,39.25
2018-11-21T10:14:16.854Z,37.88
2018-11-21T10:17:05.104Z,33.85
2018-11-21T10:30:36.654Z,35.05
2018-11-21T10:33:05.051Z,37.98
2018-11-21T10:35:35.952Z,34.65
2018-11-21T10:54:14.222Z,36.30
2018-11-21T10:56:43.386Z,34.48
2018-11-21T10:59:12.736Z,33.73
2018-11-21T11:04:53.164Z,33.40
2018-11-21T11:13:38.856Z,31.30
2018-11-21T11:19:37.963Z,30.70
2018-11-21T11:22:25.026Z,30.45
2018-11-21T11:25:12.252Z,32.83
2018-11-21T11:28:02.265Z,30.75
2018-11-21T11:33:55.338Z,28.57
2018-11-21T11:36:42.590Z,30.88
2018-11-21T11:39:30.279Z,29.00
2018-11-21T11:45:33.702Z,28.33
2018-11-21T11:48:29.858Z,30.82
2018-11-21T11:51:15.825Z,31.65
2018-11-21T11:54:17.654Z,30.68
2018-11-21T12:03:04.970Z,28.57
2018-11-21T12:09:12.840Z,28.60
2018-11-21T12:12:18.617Z,28.65
2018-11-21T12:15:11.080Z,29.45
2018-11-21T12:17:59.777Z,29.02
2018-11-21T12:27:33.028Z,24.75
2018-11-21T12:30:29.851Z,24.73
2018-11-21T12:33:20.061Z,26.30
2018-11-21T12:36:08.450Z,28.67
2018-11-21T12:41:40.207Z,27.25
2018-11-21T12:44:32.027Z,27.48
2018-11-21T12:47:19.092Z,27.90
2018-11-21T12:50:41.490Z,25.30
2018-11-21T12:53:43.879Z,25.40
2018-11-21T12:56:37.038Z,26.07
2018-11-21T12:59:17.484Z,24.85
2018-11-21T13:02:05.121Z,23.60
2018-11-21T13:04:52.486Z,23.80
2018-11-21T13:11:11.184Z,22.50
2018-11-21T13:14:01.595Z,23.73
2018-11-21T13:16:52.532Z,24.27
2018-11-21T13:19:38.798Z,24.20
2018-11-21T13:22:26.877Z,26.37
2018-11-21T13:25:15.889Z,27.27
2018-11-21T13:31:03.518Z,26.57
2018-11-21T13:34:05.126Z,25.95
2018-11-21T13:37:08.980Z,26.48
2018-11-21T13:39:58.713Z,26.10
2018-11-21T13:49:02.494Z,27.20
2018-11-21T13:52:00.769Z,28.20
2018-11-21T13:54:56.057Z,30.80
2018-11-21T13:57:35.273Z,31.93
2018-11-21T14:00:14.517Z,31.23
2018-11-21T14:02:56.616Z,30.17
2018-11-21T14:06:07.963Z,30.97
2018-11-21T14:09:13.032Z,27.75
2018-11-21T14:11:37.363Z,27.90
2018-11-21T14:14:15.513Z,30.50
2018-11-21T14:17:02.016Z,29.60
2018-11-21T14:19:33.618Z,27.25
2018-11-21T14:22:10.644Z,30.70
2018-11-21T14:24:53.061Z,28.90
2018-11-21T14:27:26.360Z,30.15
2018-11-21T14:29:57.028Z,27.52
2018-11-21T14:32:57.351Z,28.38
2018-11-21T14:35:40.683Z,29.05
2018-11-21T14:38:33.021Z,26.90
2018-11-21T14:41:30.719Z,28.45
2018-11-21T14:44:04.162Z,32.78
2018-11-21T14:46:44.795Z,32.03
2018-11-21T14:49:33.189Z,28.47
2018-11-21T14:52:01.832Z,29.35
2018-11-21T14:54:46.164Z,29.72
2018-11-21T14:57:41.982Z,28.12
2018-11-21T15:00:23.892Z,34.10
2018-11-21T15:03:27.985Z,33.28
2018-11-21T15:06:07.986Z,28.75
2018-11-21T15:09:27.451Z,31.73
2018-11-21T15:15:25.894Z,32.43
2018-11-21T15:22:01.941Z,31.07
2018-11-21T15:25:17.116Z,28.10
2018-11-21T15:31:58.698Z,31.10
2018-11-21T15:35:05.903Z,32.73
2018-11-21T15:38:02.905Z,34.18
2018-11-21T15:41:19.963Z,32.60
2018-11-21T15:44:07.954Z,32.88
2018-11-21T15:48:43.471Z,28.75
2018-11-21T15:50:32.356Z,29.15
2018-11-21T15:52:59.717Z,30.30
2018-11-21T15:55:56.068Z,32.80
2018-11-21T16:01:55.591Z,31.97
2018-11-21T16:04:26.210Z,35.87
2018-11-21T16:07:29.618Z,33.02
2018-11-21T16:10:01.334Z,32.53
2018-11-21T16:15:10.778Z,34.27
2018-11-21T16:22:58.176Z,39.60
2018-11-21T16:25:32.116Z,37.35
2018-11-21T16:28:00.636Z,40.63
2018-11-21T16:30:29.145Z,41.48
2018-11-21T16:32:57.474Z,43.90
2018-11-21T16:35:36.915Z,40.52
2018-11-21T16:41:18.523Z,44.42
2018-11-21T16:44:06.125Z,44.23
2018-11-21T16:46:22.927Z,50.90
2018-11-21T16:48:51.207Z,46.23
2018-11-21T16:51:30.442Z,45.23
2018-11-21T16:54:05.992Z,46.92
2018-11-21T16:56:34.621Z,52.55
2018-11-21T16:59:08.770Z,48.13
2018-11-21T17:01:36.932Z,48.17
2018-11-21T17:07:05.350Z,49.88
2018-11-21T17:09:58.426Z,49.55
2018-11-21T17:12:28.431Z,58.08
2018-11-21T17:14:56.633Z,57.93
2018-11-21T17:20:22.233Z,48.13
2018-11-21T17:22:52.552Z,51.90
2018-11-21T17:25:22.241Z,53.23
2018-11-21T17:27:53.396Z,47.15
2018-11-21T17:30:24.666Z,46.33
2018-11-21T17:32:57.837Z,60.97
2018-11-21T17:35:26.261Z,59.05
2018-11-21T17:38:13.600Z,52.33
2018-11-21T17:43:20.192Z,52.13
2018-11-21T17:45:54.816Z,57.40
2018-11-21T17:48:29.085Z,53.63
2018-11-21T17:51:26.651Z,60.55
2018-11-21T17:54:05.253Z,55.45
2018-11-21T17:56:33.652Z,55.20
2018-11-21T18:01:39.469Z,54.33
2018-11-21T18:04:08.114Z,57.53
2018-11-21T18:06:53.643Z,56.73
2018-11-21T18:09:21.832Z,56.83
2018-11-21T18:11:56.216Z,62.13
2018-11-21T18:14:35.341Z,58.90
2018-11-21T18:17:03.605Z,59.23
2018-11-21T18:22:10.868Z,61.20
2018-11-21T18:27:16.998Z,57.23
2018-11-21T18:29:50.047Z,55.15
2018-11-21T18:32:34.817Z,56.30
2018-11-21T18:35:02.983Z,57.03
2018-11-21T18:37:31.581Z,60.40
2018-11-21T18:40:04.646Z,69.12
2018-11-21T18:42:33.142Z,60.05
2018-11-21T18:45:01.399Z,57.17
2018-11-21T18:47:29.923Z,61.60
2018-11-21T18:53:07.230Z,58.13
2018-11-21T18:55:41.428Z,64.37
2018-11-21T18:58:34.172Z,67.35
2018-11-21T19:01:02.483Z,58.87
2018-11-21T19:03:31.207Z,72.37
2018-11-21T19:05:59.916Z,58.85
2018-11-21T19:08:28.200Z,103.75
2018-11-21T19:10:57.057Z,62.20
2018-11-21T19:13:45.098Z,71.95
2018-11-21T19:16:13.344Z,104.03
2018-11-21T19:19:01.332Z,69.65
2018-11-21T19:21:48.935Z,66.25
2018-11-21T19:24:28.697Z,68.97
2018-11-21T19:27:16.752Z,64.35
2018-11-21T19:29:45.330Z,63.80
2018-11-21T19:32:16.760Z,88.70
2018-11-21T19:35:04.697Z,63.05
2018-11-21T19:37:33.514Z,72.85
2018-11-21T19:40:04.368Z,78.00
2018-11-21T19:42:32.912Z,68.17
2018-11-21T19:45:21.707Z,68.83
